createdAt,value
2022-12-12T00:01:53.688Z,99.90
2022-12-12T00:04:38.713Z,99.50
2022-12-12T00:07:24.021Z,99.30
2022-12-12T00:10:09.742Z,99.00
2022-12-12T00:12:54.892Z,99.00
2022-12-12T00:15:40.275Z,99.00
2022-12-12T00:18:25.604Z,99.00
2022-12-12T00:21:17.642Z,98.80
2022-12-12T00:24:03.713Z,99.50
2022-12-12T00:26:48.774Z,99.10
2022-12-12T00:29:34.390Z,99.30
2022-12-12T00:32:19.844Z,99.40
2022-12-12T00:35:05.422Z,98.90
2022-12-12T00:37:51.412Z,98.90
2022-12-12T00:40:36.868Z,99.80
2022-12-12T00:43:22.010Z,99.90
2022-12-12T00:46:07.835Z,99.90
2022-12-12T00:48:58.363Z,99.90
2022-12-12T00:51:44.914Z,99.30
2022-12-12T00:54:30.436Z,99.40
2022-12-12T00:57:15.786Z,99.90
2022-12-12T01:00:01.396Z,99.90
2022-12-12T01:02:47.593Z,99.90
2022-12-12T01:05:32.686Z,99.90
2022-12-12T01:08:18.361Z,99.90
2022-12-12T01:11:04.219Z,99.90
2022-12-12T01:13:52.430Z,99.90
2022-12-12T01:16:37.655Z,99.90
2022-12-12T01:19:23.001Z,99.90
2022-12-12T01:22:08.542Z,99.90
2022-12-12T01:24:56.867Z,99.90
2022-12-12T01:27:42.334Z,99.90
2022-12-12T01:30:27.998Z,99.90
2022-12-12T01:33:13.330Z,99.90
2022-12-12T01:35:58.981Z,99.90
2022-12-12T01:38:46.044Z,99.90
2022-12-12T01:41:31.617Z,99.90
2022-12-12T01:44:38.742Z,99.90
2022-12-12T01:47:24.437Z,99.90
2022-12-12T01:50:10.416Z,99.90
2022-12-12T01:52:55.928Z,99.90
2022-12-12T01:55:41.765Z,99.90
2022-12-12T01:58:29.253Z,99.90
2022-12-12T02:01:15.633Z,99.90
2022-12-12T02:04:02.149Z,99.90
2022-12-12T02:06:48.995Z,99.90
2022-12-12T02:09:35.745Z,99.90
2022-12-12T02:12:21.192Z,99.90
2022-12-12T02:15:07.018Z,99.70
2022-12-12T02:18:17.886Z,99.90
2022-12-12T02:21:25.002Z,99.90
2022-12-12T02:24:30.710Z,99.90
2022-12-12T02:27:46.226Z,99.90
2022-12-12T02:30:48.535Z,99.90
2022-12-12T02:33:42.421Z,99.90
2022-12-12T02:36:48.605Z,99.90
2022-12-12T02:39:43.732Z,99.90
2022-12-12T02:42:41.110Z,99.90
2022-12-12T02:45:40.595Z,99.90
2022-12-12T02:48:46.118Z,99.90
2022-12-12T02:51:33.269Z,99.90
2022-12-12T02:54:22.656Z,99.90
2022-12-12T02:57:24.014Z,99.90
2022-12-12T03:00:18.216Z,99.90
2022-12-12T03:03:39.689Z,99.90
2022-12-12T03:07:01.401Z,99.90
2022-12-12T03:10:01.211Z,99.90
2022-12-12T03:13:00.624Z,99.90
2022-12-12T03:16:18.992Z,99.90
2022-12-12T03:19:27.129Z,99.90
2022-12-12T03:22:20.765Z,99.90
2022-12-12T03:25:08.698Z,99.90
2022-12-12T03:28:01.993Z,99.90
2022-12-12T03:30:55.191Z,99.90
2022-12-12T03:33:58.227Z,99.90
2022-12-12T03:36:52.157Z,99.90
2022-12-12T03:39:46.492Z,99.90
2022-12-12T03:43:05.206Z,99.90
2022-12-12T03:45:59.410Z,99.90
2022-12-12T03:48:54.913Z,99.90
2022-12-12T03:51:46.391Z,99.90
2022-12-12T03:54:39.780Z,99.90
2022-12-12T03:57:42.822Z,99.90
2022-12-12T04:00:32.001Z,99.90
2022-12-12T04:03:40.977Z,99.90
2022-12-12T04:06:53.782Z,99.90
2022-12-12T04:09:57.597Z,99.70
2022-12-12T04:12:58.984Z,99.90
2022-12-12T04:16:09.912Z,99.80
2022-12-12T04:19:04.593Z,99.90
2022-12-12T04:22:16.817Z,99.30
2022-12-12T04:26:02.036Z,99.20
2022-12-12T04:29:21.026Z,99.00
2022-12-12T04:32:22.460Z,99.90
2022-12-12T04:35:31.801Z,99.90
2022-12-12T04:38:21.830Z,99.90
2022-12-12T04:41:10.295Z,99.90
2022-12-12T04:43:56.661Z,99.10
2022-12-12T04:46:42.612Z,99.30
2022-12-12T04:49:30.404Z,99.60
2022-12-12T04:52:18.657Z,99.90
2022-12-12T04:55:26.965Z,99.50
2022-12-12T04:58:12.377Z,99.70
2022-12-12T05:01:03.613Z,99.70
2022-12-12T05:03:55.409Z,99.50
2022-12-12T05:06:47.495Z,99.10
2022-12-12T05:09:33.863Z,98.40
2022-12-12T05:12:19.134Z,98.00
2022-12-12T05:15:04.808Z,98.40
2022-12-12T05:18:04.900Z,99.40
2022-12-12T05:20:50.685Z,98.80
2022-12-12T05:23:36.037Z,99.00
2022-12-12T05:26:30.268Z,98.50
2022-12-12T05:29:15.719Z,98.20
2022-12-12T05:32:01.069Z,99.00
2022-12-12T05:34:46.702Z,98.70
2022-12-12T05:37:32.142Z,98.90
2022-12-12T05:40:17.985Z,99.10
2022-12-12T05:43:03.225Z,99.00
2022-12-12T05:45:48.815Z,99.70
2022-12-12T05:48:34.621Z,98.20
2022-12-12T05:51:21.248Z,99.90
2022-12-12T05:54:06.622Z,99.90
2022-12-12T05:56:52.270Z,99.90
2022-12-12T05:59:37.449Z,99.90
2022-12-12T06:02:22.943Z,99.90
2022-12-12T06:05:08.925Z,99.20
2022-12-12T06:07:54.348Z,99.90
2022-12-12T06:10:39.755Z,99.90
2022-12-12T06:13:25.020Z,99.90
2022-12-12T06:16:12.831Z,99.90
2022-12-12T06:18:58.301Z,99.90
2022-12-12T06:21:43.641Z,99.90
2022-12-12T06:24:29.061Z,99.90
2022-12-12T06:27:14.370Z,99.90
2022-12-12T06:29:59.870Z,99.90
2022-12-12T06:32:45.325Z,99.90
2022-12-12T06:35:30.702Z,99.90
2022-12-12T06:38:16.137Z,99.90
2022-12-12T06:41:09.435Z,99.90
2022-12-12T06:43:55.404Z,99.60
2022-12-12T06:46:40.463Z,99.90
2022-12-12T06:49:25.893Z,99.90
2022-12-12T06:52:11.420Z,99.90
2022-12-12T06:54:56.837Z,99.90
2022-12-12T06:57:41.978Z,99.90
2022-12-12T07:00:27.455Z,99.90
2022-12-12T07:03:13.518Z,99.90
2022-12-12T07:05:59.126Z,99.90
2022-12-12T07:08:44.837Z,99.30
2022-12-12T07:11:30.035Z,98.60
2022-12-12T07:14:15.453Z,98.40
2022-12-12T07:17:01.326Z,98.40
2022-12-12T07:19:46.401Z,99.10
2022-12-12T07:22:31.788Z,99.10
2022-12-12T07:25:17.204Z,99.00
2022-12-12T07:28:02.662Z,99.50
2022-12-12T07:30:48.507Z,99.90
2022-12-12T07:33:43.063Z,98.80
2022-12-12T07:36:29.308Z,99.40
2022-12-12T07:39:20.366Z,99.00
2022-12-12T07:42:06.227Z,97.90
2022-12-12T07:44:51.457Z,98.70
2022-12-12T07:47:37.936Z,99.60
2022-12-12T07:50:23.658Z,99.10
2022-12-12T07:53:08.795Z,99.00
2022-12-12T07:55:54.836Z,98.60
2022-12-12T07:58:40.252Z,97.80
2022-12-12T08:01:27.229Z,97.80
2022-12-12T08:04:12.601Z,98.20
2022-12-12T08:07:03.930Z,98.30
2022-12-12T08:09:52.437Z,98.20
2022-12-12T08:12:37.668Z,98.30
2022-12-12T08:15:23.879Z,98.50
2022-12-12T08:18:09.344Z,98.30
2022-12-12T08:20:54.776Z,98.50
2022-12-12T08:23:41.168Z,98.50
2022-12-12T08:26:27.416Z,99.90
2022-12-12T08:29:12.853Z,99.90
2022-12-12T08:31:58.401Z,98.70
2022-12-12T08:34:43.593Z,98.60
2022-12-12T08:37:28.947Z,98.60
2022-12-12T08:40:14.224Z,98.60
2022-12-12T08:42:59.730Z,98.60
2022-12-12T08:45:46.053Z,98.60
2022-12-12T08:48:31.327Z,98.70
2022-12-12T08:51:17.729Z,98.70
2022-12-12T08:54:02.716Z,98.90
2022-12-12T08:56:48.341Z,98.90
2022-12-12T08:59:33.585Z,99.00
2022-12-12T09:02:19.132Z,99.10
2022-12-12T09:05:04.936Z,99.10
2022-12-12T09:07:50.592Z,99.40
2022-12-12T09:10:36.055Z,99.40
2022-12-12T09:13:21.310Z,99.40
2022-12-12T09:16:08.374Z,99.20
2022-12-12T09:18:53.433Z,99.50
2022-12-12T09:21:38.737Z,99.40
2022-12-12T09:24:25.474Z,99.50
2022-12-12T09:27:10.819Z,99.40
2022-12-12T09:29:56.170Z,99.90
2022-12-12T09:32:42.186Z,99.90
2022-12-12T09:35:27.422Z,99.40
2022-12-12T09:38:14.863Z,99.40
2022-12-12T09:41:03.169Z,99.30
2022-12-12T09:44:02.922Z,99.30
2022-12-12T09:46:55.536Z,99.60
2022-12-12T09:49:50.949Z,99.60
2022-12-12T09:52:37.584Z,99.60
2022-12-12T09:56:07.244Z,99.40
2022-12-12T09:59:02.400Z,99.80
2022-12-12T10:02:13.180Z,99.30
2022-12-12T10:05:03.874Z,99.10
2022-12-12T10:07:56.269Z,99.60
2022-12-12T10:10:48.343Z,99.60
2022-12-12T10:13:35.403Z,98.60
2022-12-12T10:16:20.944Z,98.80
2022-12-12T10:19:24.592Z,98.30
2022-12-12T10:22:24.466Z,98.50
2022-12-12T10:25:20.208Z,98.10
2022-12-12T10:28:14.736Z,97.90
2022-12-12T10:31:31.138Z,98.10
2022-12-12T10:34:53.111Z,99.90
2022-12-12T10:38:18.164Z,99.70
2022-12-12T10:41:18.408Z,99.50
2022-12-12T10:44:15.641Z,98.30
2022-12-12T10:47:08.796Z,98.00
2022-12-12T10:50:02.258Z,97.50
2022-12-12T10:52:48.407Z,97.60
2022-12-12T10:55:53.578Z,96.40
2022-12-12T10:58:44.248Z,96.20
2022-12-12T11:02:09.017Z,97.30
2022-12-12T11:04:45.245Z,96.80
2022-12-12T11:07:31.608Z,96.80
2022-12-12T11:10:36.645Z,96.90
2022-12-12T11:13:21.726Z,96.30
2022-12-12T11:16:13.890Z,96.20
2022-12-12T11:19:05.197Z,95.90
2022-12-12T11:21:51.634Z,95.50
2022-12-12T11:24:46.237Z,95.60
2022-12-12T11:27:41.391Z,95.10
2022-12-12T11:30:43.632Z,95.00
2022-12-12T11:33:39.746Z,94.40
2022-12-12T11:36:43.123Z,94.20
2022-12-12T11:39:35.819Z,94.20
2022-12-12T11:42:30.213Z,93.50
2022-12-12T11:45:16.406Z,93.00
2022-12-12T11:48:02.073Z,92.90
2022-12-12T11:50:47.332Z,92.50
2022-12-12T11:53:43.285Z,92.00
2022-12-12T11:56:38.777Z,92.10
2022-12-12T11:59:46.103Z,92.30
2022-12-12T12:02:46.307Z,91.60
2022-12-12T12:05:43.536Z,92.70
2022-12-12T12:08:42.989Z,93.80
2022-12-12T12:11:30.797Z,93.20
2022-12-12T12:14:37.253Z,93.30
2022-12-12T12:17:35.345Z,92.80
2022-12-12T12:20:45.741Z,94.10
2022-12-12T12:23:50.662Z,93.30
2022-12-12T12:26:54.839Z,93.80
2022-12-12T12:30:11.778Z,93.80
2022-12-12T12:33:12.337Z,92.90
2022-12-12T12:36:23.425Z,93.00
2022-12-12T12:39:45.077Z,93.50
2022-12-12T12:42:46.214Z,93.50
2022-12-12T12:45:45.540Z,93.40
2022-12-12T12:48:37.066Z,91.80
2022-12-12T12:51:37.093Z,92.20
2022-12-12T12:54:48.170Z,92.60
2022-12-12T12:57:39.995Z,92.60
2022-12-12T13:00:28.745Z,92.80
2022-12-12T13:03:18.999Z,92.20
2022-12-12T13:06:12.706Z,91.70
2022-12-12T13:09:15.474Z,91.80
2022-12-12T13:12:16.378Z,91.20
2022-12-12T13:15:14.331Z,91.40
2022-12-12T13:18:06.453Z,91.10
2022-12-12T13:21:22.505Z,91.40
2022-12-12T13:24:20.829Z,91.10
2022-12-12T13:27:14.979Z,91.20
2022-12-12T13:30:06.253Z,91.60
2022-12-12T13:32:57.257Z,91.40
2022-12-12T13:35:48.541Z,91.50
2022-12-12T13:38:35.747Z,92.20
2022-12-12T13:41:21.484Z,91.80
2022-12-12T13:44:06.660Z,92.60
2022-12-12T13:46:52.085Z,92.50
2022-12-12T13:49:53.772Z,92.30
2022-12-12T13:52:42.136Z,92.40
2022-12-12T13:55:27.454Z,92.60
2022-12-12T13:58:31.313Z,92.80
2022-12-12T14:01:39.199Z,92.70
2022-12-12T14:04:34.658Z,93.40
2022-12-12T14:07:23.268Z,93.50
2022-12-12T14:10:30.633Z,93.30
2022-12-12T14:13:21.821Z,93.50
2022-12-12T14:16:19.816Z,93.30
2022-12-12T14:19:08.446Z,93.70
2022-12-12T14:21:53.729Z,93.70
2022-12-12T14:24:47.862Z,93.80
2022-12-12T14:27:49.193Z,93.80
2022-12-12T14:30:48.598Z,93.80
2022-12-12T14:33:52.581Z,93.70
2022-12-12T14:37:09.880Z,93.90
2022-12-12T14:40:11.110Z,93.70
2022-12-12T14:43:19.724Z,93.90
2022-12-12T14:46:17.613Z,94.40
2022-12-12T14:49:04.457Z,94.00
2022-12-12T14:51:56.825Z,94.30
2022-12-12T14:54:42.259Z,94.70
2022-12-12T14:57:28.429Z,94.90
2022-12-12T15:00:20.220Z,95.00
2022-12-12T15:03:06.393Z,94.80
2022-12-12T15:06:29.497Z,94.90
2022-12-12T15:09:27.202Z,95.90
2022-12-12T15:12:18.629Z,99.90
2022-12-12T15:15:05.188Z,97.80
2022-12-12T15:17:51.515Z,97.20
2022-12-12T15:20:37.081Z,97.10
2022-12-12T15:23:23.128Z,97.00
2022-12-12T15:26:19.789Z,96.70
2022-12-12T15:29:04.899Z,96.70
2022-12-12T15:31:57.231Z,97.00
2022-12-12T15:34:46.086Z,96.70
2022-12-12T15:37:37.610Z,96.60
2022-12-12T15:40:34.036Z,96.60
2022-12-12T15:43:25.820Z,96.10
2022-12-12T15:46:14.862Z,97.00
2022-12-12T15:49:00.202Z,96.10
2022-12-12T15:51:45.720Z,96.10
2022-12-12T15:54:31.111Z,95.90
2022-12-12T15:57:23.830Z,96.00
2022-12-12T16:00:22.983Z,96.20
2022-12-12T16:03:11.247Z,94.80
2022-12-12T16:06:03.230Z,94.80
2022-12-12T16:08:59.120Z,94.90
2022-12-12T16:11:47.117Z,95.10
2022-12-12T16:14:42.102Z,95.20
2022-12-12T16:17:29.148Z,95.40
2022-12-12T16:20:14.881Z,96.10
2022-12-12T16:23:28.729Z,96.50
2022-12-12T16:26:13.964Z,96.60
2022-12-12T16:28:59.302Z,95.50
2022-12-12T16:31:45.782Z,95.40
2022-12-12T16:34:31.591Z,95.40
2022-12-12T16:37:18.643Z,96.10
2022-12-12T16:40:04.108Z,99.70
2022-12-12T16:43:07.775Z,98.00
2022-12-12T16:45:56.370Z,97.10
2022-12-12T16:48:41.700Z,96.40
2022-12-12T16:51:29.258Z,96.20
2022-12-12T16:54:19.488Z,95.90
2022-12-12T16:57:04.595Z,95.60
2022-12-12T16:59:50.131Z,95.50
2022-12-12T17:02:36.290Z,95.50
2022-12-12T17:05:24.304Z,95.40
2022-12-12T17:08:10.395Z,95.10
2022-12-12T17:11:09.254Z,95.00
2022-12-12T17:13:56.183Z,95.00
2022-12-12T17:16:41.526Z,94.70
2022-12-12T17:19:26.843Z,94.50
2022-12-12T17:22:12.226Z,94.40
2022-12-12T17:24:57.480Z,94.50
2022-12-12T17:27:43.114Z,94.40
2022-12-12T17:30:28.491Z,94.40
2022-12-12T17:33:19.490Z,94.50
2022-12-12T17:36:06.477Z,94.40
2022-12-12T17:38:51.788Z,94.20
2022-12-12T17:41:37.045Z,94.30
2022-12-12T17:44:23.730Z,94.20
2022-12-12T17:47:09.099Z,94.10
2022-12-12T17:49:54.294Z,94.10
2022-12-12T17:52:39.622Z,93.80
2022-12-12T17:55:53.271Z,93.70
2022-12-12T17:58:34.932Z,94.00
2022-12-12T18:01:26.409Z,94.30
2022-12-12T18:04:12.220Z,93.70
2022-12-12T18:06:57.610Z,93.40
2022-12-12T18:09:43.075Z,93.50
2022-12-12T18:12:28.550Z,93.30
2022-12-12T18:15:13.943Z,93.40
2022-12-12T18:17:59.429Z,93.80
2022-12-12T18:20:44.865Z,94.00
2022-12-12T18:23:30.276Z,93.60
2022-12-12T18:26:22.136Z,93.50
2022-12-12T18:29:08.328Z,93.70
2022-12-12T18:31:54.313Z,94.10
2022-12-12T18:34:39.862Z,94.20
2022-12-12T18:37:24.896Z,94.30
2022-12-12T18:40:10.660Z,94.30
2022-12-12T18:42:56.525Z,93.90
2022-12-12T18:45:41.667Z,94.20
2022-12-12T18:48:27.012Z,94.00
2022-12-12T18:51:19.744Z,93.90
2022-12-12T18:54:10.963Z,93.80
2022-12-12T18:56:59.873Z,93.80
2022-12-12T18:59:45.110Z,93.60
2022-12-12T19:02:30.626Z,93.50
2022-12-12T19:05:16.342Z,93.80
2022-12-12T19:08:01.529Z,93.90
2022-12-12T19:10:46.949Z,94.20
2022-12-12T19:13:32.625Z,93.90
2022-12-12T19:16:20.159Z,93.70
2022-12-12T19:19:06.350Z,93.50
2022-12-12T19:21:52.378Z,93.70
2022-12-12T19:24:40.929Z,93.80
2022-12-12T19:27:26.396Z,93.80
2022-12-12T19:30:13.554Z,93.70
2022-12-12T19:32:59.066Z,93.50
2022-12-12T19:35:44.633Z,93.70
2022-12-12T19:38:30.751Z,94.70
2022-12-12T19:41:17.841Z,93.80
2022-12-12T19:44:04.656Z,94.00
2022-12-12T19:46:50.124Z,94.10
2022-12-12T19:49:35.627Z,93.10
2022-12-12T19:52:21.052Z,94.80
2022-12-12T19:55:06.912Z,95.00
2022-12-12T19:57:52.268Z,95.00
2022-12-12T20:00:37.737Z,94.40
2022-12-12T20:03:23.128Z,95.10
2022-12-12T20:06:10.362Z,94.70
2022-12-12T20:08:58.960Z,95.10
2022-12-12T20:11:45.368Z,95.30
2022-12-12T20:14:32.741Z,94.50
2022-12-12T20:17:17.792Z,94.80
2022-12-12T20:20:04.362Z,95.10
2022-12-12T20:22:49.693Z,95.10
2022-12-12T20:25:35.084Z,94.80
2022-12-12T20:28:20.418Z,94.60
2022-12-12T20:31:11.800Z,94.50
2022-12-12T20:33:58.420Z,94.40
2022-12-12T20:36:44.650Z,94.70
2022-12-12T20:39:29.825Z,95.50
2022-12-12T20:42:15.302Z,95.00
2022-12-12T20:45:01.845Z,95.10
2022-12-12T20:47:47.001Z,95.70
2022-12-12T20:50:32.502Z,95.20
2022-12-12T20:53:17.786Z,95.40
2022-12-12T20:56:11.034Z,95.20
2022-12-12T20:58:59.770Z,94.90
2022-12-12T21:01:47.075Z,94.50
2022-12-12T21:04:32.425Z,95.00
2022-12-12T21:07:17.812Z,95.10
2022-12-12T21:10:03.627Z,94.70
2022-12-12T21:12:48.663Z,94.40
2022-12-12T21:15:35.689Z,94.20
2022-12-12T21:18:21.282Z,94.70
2022-12-12T21:21:10.697Z,95.20
2022-12-12T21:23:56.546Z,95.50
2022-12-12T21:26:42.532Z,94.70
2022-12-12T21:29:27.914Z,93.90
2022-12-12T21:32:13.295Z,94.40
2022-12-12T21:34:58.632Z,94.80
2022-12-12T21:37:43.956Z,93.80
2022-12-12T21:40:29.520Z,94.30
2022-12-12T21:43:14.805Z,94.20
2022-12-12T21:46:03.464Z,94.60
2022-12-12T21:49:07.877Z,94.30
2022-12-12T21:51:55.434Z,94.50
2022-12-12T21:54:41.006Z,94.00
2022-12-12T21:57:26.534Z,94.30
2022-12-12T22:00:12.225Z,94.10
2022-12-12T22:02:57.641Z,94.90
2022-12-12T22:05:42.789Z,94.10
2022-12-12T22:08:28.227Z,94.30
2022-12-12T22:11:33.809Z,94.30
2022-12-12T22:14:21.517Z,94.10
2022-12-12T22:17:06.568Z,93.90
2022-12-12T22:19:51.941Z,94.60
2022-12-12T22:22:37.191Z,94.50
2022-12-12T22:25:22.709Z,94.70
2022-12-12T22:28:07.965Z,94.30
2022-12-12T22:30:53.450Z,95.10
2022-12-12T22:33:39.282Z,95.10
2022-12-12T22:36:26.690Z,94.00
2022-12-12T22:39:18.243Z,94.60
2022-12-12T22:42:03.572Z,94.50
2022-12-12T22:44:48.963Z,94.90
2022-12-12T22:47:34.581Z,95.30
2022-12-12T22:50:19.982Z,94.30
2022-12-12T22:53:05.343Z,95.00
2022-12-12T22:55:50.726Z,94.20
2022-12-12T22:58:35.957Z,94.60
2022-12-12T23:01:22.929Z,94.90
2022-12-12T23:04:09.711Z,95.40
2022-12-12T23:06:55.094Z,94.90
2022-12-12T23:09:52.197Z,94.60
2022-12-12T23:12:39.888Z,94.30
2022-12-12T23:15:25.245Z,94.40
2022-12-12T23:18:10.633Z,94.90
2022-12-12T23:20:55.862Z,94.30
2022-12-12T23:23:41.229Z,94.10
2022-12-12T23:26:30.162Z,94.70
2022-12-12T23:29:16.885Z,94.00
2022-12-12T23:32:03.061Z,94.60
2022-12-12T23:34:48.607Z,93.60
2022-12-12T23:37:33.961Z,94.60
2022-12-12T23:40:19.342Z,94.60
2022-12-12T23:43:04.611Z,94.50
2022-12-12T23:45:50.031Z,94.20
2022-12-12T23:48:35.407Z,92.80
2022-12-12T23:51:20.975Z,93.40
2022-12-12T23:54:10.370Z,93.60
2022-12-12T23:56:55.911Z,93.30
2022-12-12T23:59:41.981Z,93.50
